createdAt,value
2022-10-23T00:01:14.248Z,15.40
2022-10-23T00:03:41.178Z,15.20
2022-10-23T00:06:08.317Z,15.50
2022-10-23T00:08:35.146Z,15.70
2022-10-23T00:11:05.762Z,15.60
2022-10-23T00:13:32.555Z,15.70
2022-10-23T00:15:59.279Z,15.70
2022-10-23T00:18:26.043Z,15.80
2022-10-23T00:20:52.783Z,15.90
2022-10-23T00:23:19.547Z,15.80
2022-10-23T00:25:46.265Z,15.60
2022-10-23T00:28:12.953Z,15.50
2022-10-23T00:30:39.742Z,15.40
2022-10-23T00:33:06.619Z,15.50
2022-10-23T00:35:33.360Z,15.40
2022-10-23T00:38:00.052Z,15.50
2022-10-23T00:40:26.865Z,15.70
2022-10-23T00:42:53.601Z,15.60
2022-10-23T00:45:34.292Z,15.50
2022-10-23T00:48:02.739Z,15.20
2022-10-23T00:50:32.056Z,15.00
2022-10-23T00:53:03.276Z,15.00
2022-10-23T00:55:32.212Z,15.00
2022-10-23T00:57:59.175Z,15.10
2022-10-23T01:00:32.352Z,15.20
2022-10-23T01:02:59.644Z,15.40
2022-10-23T01:05:41.299Z,15.60
2022-10-23T01:08:17.326Z,15.60
2022-10-23T01:10:49.285Z,15.20
2022-10-23T01:13:25.412Z,15.50
2022-10-23T01:16:01.224Z,15.50
2022-10-23T01:18:40.079Z,15.70
2022-10-23T01:21:17.252Z,15.70
2022-10-23T01:23:46.757Z,15.80
2022-10-23T01:26:55.195Z,16.00
2022-10-23T01:29:46.126Z,16.10
2022-10-23T01:32:17.545Z,16.00
2022-10-23T01:35:08.950Z,15.80
2022-10-23T01:37:46.003Z,15.70
2022-10-23T01:40:23.126Z,15.70
2022-10-23T01:42:54.970Z,15.60
2022-10-23T01:45:32.518Z,15.70
2022-10-23T01:48:01.703Z,15.60
2022-10-23T01:50:30.215Z,15.50
2022-10-23T01:52:57.428Z,15.60
2022-10-23T01:55:26.051Z,15.60
2022-10-23T01:57:54.234Z,15.40
2022-10-23T02:00:21.122Z,15.40
2022-10-23T02:02:50.500Z,15.30
2022-10-23T02:05:26.550Z,15.30
2022-10-23T02:07:54.748Z,15.40
2022-10-23T02:10:24.695Z,15.40
2022-10-23T02:13:07.331Z,15.30
2022-10-23T02:15:37.363Z,15.20
2022-10-23T02:18:24.152Z,15.30
2022-10-23T02:21:03.176Z,15.20
2022-10-23T02:23:36.998Z,15.20
2022-10-23T02:26:18.119Z,15.30
2022-10-23T02:28:51.494Z,15.10
2022-10-23T02:31:21.489Z,14.80
2022-10-23T02:33:48.468Z,14.80
2022-10-23T02:36:16.793Z,14.80
2022-10-23T02:38:45.309Z,14.80
2022-10-23T02:41:35.665Z,14.70
2022-10-23T02:44:23.175Z,14.80
2022-10-23T02:47:19.602Z,14.90
2022-10-23T02:50:10.792Z,14.90
2022-10-23T02:52:56.140Z,15.00
2022-10-23T02:55:43.854Z,15.10
2022-10-23T02:58:35.982Z,15.10
2022-10-23T03:01:09.937Z,14.90
2022-10-23T03:03:57.692Z,15.00
2022-10-23T03:06:25.573Z,14.60
2022-10-23T03:08:58.354Z,14.60
2022-10-23T03:11:25.463Z,14.50
2022-10-23T03:13:52.622Z,14.50
2022-10-23T03:16:19.342Z,14.50
2022-10-23T03:18:46.040Z,14.30
2022-10-23T03:21:12.800Z,14.50
2022-10-23T03:23:39.502Z,14.50
2022-10-23T03:26:06.369Z,14.60
2022-10-23T03:28:33.202Z,14.50
2022-10-23T03:31:02.132Z,14.70
2022-10-23T03:33:33.054Z,14.80
2022-10-23T03:35:59.787Z,15.00
2022-10-23T03:38:26.542Z,15.10
2022-10-23T03:40:53.408Z,15.00
2022-10-23T03:43:20.177Z,15.00
2022-10-23T03:45:46.957Z,14.80
2022-10-23T03:48:14.582Z,14.70
2022-10-23T03:50:41.285Z,15.00
2022-10-23T03:53:07.976Z,14.90
2022-10-23T03:55:34.724Z,14.80
2022-10-23T03:58:01.510Z,14.70
2022-10-23T04:00:28.448Z,14.70
2022-10-23T04:02:55.263Z,14.70
2022-10-23T04:05:22.056Z,14.50
2022-10-23T04:07:48.873Z,14.60
2022-10-23T04:10:15.597Z,14.60
2022-10-23T04:12:42.666Z,14.60
2022-10-23T04:15:09.955Z,15.00
2022-10-23T04:17:36.693Z,14.50
2022-10-23T04:20:03.847Z,14.60
2022-10-23T04:22:30.605Z,14.60
2022-10-23T04:24:57.338Z,14.70
2022-10-23T04:27:24.136Z,14.60
2022-10-23T04:29:53.236Z,14.70
2022-10-23T04:32:22.375Z,14.70
2022-10-23T04:34:49.040Z,14.60
2022-10-23T04:37:15.798Z,15.00
2022-10-23T04:39:42.517Z,15.00
2022-10-23T04:42:09.236Z,14.90
2022-10-23T04:44:35.948Z,14.80
2022-10-23T04:47:02.677Z,14.90
2022-10-23T04:49:29.415Z,14.80
2022-10-23T04:51:56.160Z,14.90
2022-10-23T04:54:22.975Z,14.90
2022-10-23T04:56:49.679Z,14.80
2022-10-23T04:59:16.439Z,14.80
2022-10-23T05:01:43.249Z,14.80
2022-10-23T05:04:10.123Z,14.70
2022-10-23T05:06:36.936Z,14.60
2022-10-23T05:09:03.883Z,14.60
2022-10-23T05:11:30.646Z,14.60
2022-10-23T05:13:57.375Z,14.60
2022-10-23T05:16:41.577Z,14.70
2022-10-23T05:19:10.695Z,14.80
2022-10-23T05:21:39.310Z,14.80
2022-10-23T05:24:06.379Z,14.90
2022-10-23T05:26:33.153Z,14.60
2022-10-23T05:28:59.967Z,14.50
2022-10-23T05:31:26.799Z,14.50
2022-10-23T05:33:55.259Z,14.60
2022-10-23T05:36:24.075Z,14.60
2022-10-23T05:38:51.497Z,14.70
2022-10-23T05:41:18.292Z,14.70
2022-10-23T05:43:46.441Z,14.70
2022-10-23T05:46:13.218Z,14.70
2022-10-23T05:48:40.031Z,14.60
2022-10-23T05:51:11.614Z,14.70
2022-10-23T05:53:40.384Z,14.80
2022-10-23T05:56:09.768Z,15.00
2022-10-23T05:58:36.562Z,15.20
2022-10-23T06:01:11.893Z,15.60
2022-10-23T06:03:38.885Z,15.90
2022-10-23T06:06:07.105Z,16.10
2022-10-23T06:08:34.865Z,16.20
2022-10-23T06:11:13.241Z,16.10
2022-10-23T06:13:42.471Z,16.00
2022-10-23T06:16:25.448Z,15.60
2022-10-23T06:18:52.162Z,15.70
2022-10-23T06:21:19.855Z,15.80
2022-10-23T06:23:47.617Z,15.90
2022-10-23T06:26:17.146Z,16.00
2022-10-23T06:28:43.957Z,16.10
2022-10-23T06:31:16.096Z,16.20
2022-10-23T06:33:43.092Z,16.20
2022-10-23T06:36:10.723Z,16.20
2022-10-23T06:38:40.832Z,15.80
2022-10-23T06:41:20.223Z,16.00
2022-10-23T06:43:51.594Z,16.20
2022-10-23T06:46:19.327Z,16.00
2022-10-23T06:48:46.127Z,16.20
2022-10-23T06:51:14.843Z,16.10
2022-10-23T06:53:41.888Z,16.20
2022-10-23T06:56:09.676Z,16.10
2022-10-23T06:58:38.118Z,16.10
2022-10-23T07:01:08.235Z,15.90
2022-10-23T07:03:35.732Z,15.90
2022-10-23T07:06:05.129Z,15.80
2022-10-23T07:08:32.281Z,15.90
2022-10-23T07:11:10.327Z,15.80
2022-10-23T07:13:38.666Z,15.70
2022-10-23T07:16:20.155Z,15.50
2022-10-23T07:18:48.238Z,15.50
2022-10-23T07:21:15.632Z,15.20
2022-10-23T07:23:42.335Z,15.10
2022-10-23T07:26:15.510Z,15.20
2022-10-23T07:28:44.712Z,15.20
2022-10-23T07:31:11.560Z,15.10
2022-10-23T07:33:38.360Z,15.00
2022-10-23T07:36:07.015Z,14.80
2022-10-23T07:38:34.868Z,14.80
2022-10-23T07:41:02.500Z,14.90
2022-10-23T07:43:29.362Z,14.80
2022-10-23T07:45:56.290Z,15.00
2022-10-23T07:48:23.901Z,15.30
2022-10-23T07:50:51.424Z,14.90
2022-10-23T07:53:23.217Z,15.00
2022-10-23T07:55:58.290Z,15.10
2022-10-23T07:58:27.044Z,15.10
2022-10-23T08:01:02.804Z,15.00
2022-10-23T08:03:32.354Z,14.80
2022-10-23T08:06:00.180Z,15.00
2022-10-23T08:08:27.244Z,14.90
2022-10-23T08:10:55.330Z,14.80
2022-10-23T08:13:22.414Z,14.90
2022-10-23T08:15:51.092Z,14.80
2022-10-23T08:18:18.557Z,14.80
2022-10-23T08:20:47.360Z,14.80
2022-10-23T08:23:17.899Z,15.00
2022-10-23T08:25:45.261Z,14.80
2022-10-23T08:28:12.189Z,14.70
2022-10-23T08:30:39.153Z,14.70
2022-10-23T08:33:06.840Z,14.70
2022-10-23T08:35:39.542Z,14.70
2022-10-23T08:38:07.267Z,14.80
2022-10-23T08:40:35.761Z,14.90
2022-10-23T08:43:12.303Z,15.10
2022-10-23T08:45:53.792Z,15.10
2022-10-23T08:48:24.479Z,15.10
2022-10-23T08:51:14.194Z,15.10
2022-10-23T08:54:02.939Z,15.20
2022-10-23T08:56:39.444Z,15.60
2022-10-23T08:59:26.281Z,15.90
2022-10-23T09:02:01.589Z,16.30
2022-10-23T09:04:28.781Z,16.30
2022-10-23T09:07:15.765Z,16.30
2022-10-23T09:09:53.019Z,16.20
2022-10-23T09:12:24.800Z,16.20
2022-10-23T09:14:57.378Z,16.20
2022-10-23T09:17:33.350Z,16.30
2022-10-23T09:20:21.722Z,16.30
2022-10-23T09:22:53.045Z,16.60
2022-10-23T09:25:26.347Z,16.60
2022-10-23T09:27:57.333Z,16.40
2022-10-23T09:30:42.571Z,15.90
2022-10-23T09:33:25.051Z,15.90
2022-10-23T09:35:56.629Z,16.20
2022-10-23T09:38:46.544Z,16.40
2022-10-23T09:41:35.061Z,16.50
2022-10-23T09:44:07.909Z,16.60
2022-10-23T09:46:41.903Z,16.10
2022-10-23T09:49:21.655Z,16.00
2022-10-23T09:52:08.646Z,16.20
2022-10-23T09:54:40.083Z,16.20
2022-10-23T09:57:38.152Z,16.40
2022-10-23T10:00:18.612Z,16.70
2022-10-23T10:02:56.011Z,16.90
2022-10-23T10:05:24.296Z,16.90
2022-10-23T10:08:20.683Z,17.10
2022-10-23T10:10:51.947Z,17.10
2022-10-23T10:13:33.931Z,17.00
2022-10-23T10:16:16.503Z,16.90
2022-10-23T10:19:01.938Z,16.90
2022-10-23T10:21:40.115Z,16.70
2022-10-23T10:24:17.901Z,16.00
2022-10-23T10:26:58.962Z,15.50
2022-10-23T10:29:51.130Z,15.30
2022-10-23T10:32:54.340Z,15.40
2022-10-23T10:36:07.156Z,15.50
2022-10-23T10:38:51.434Z,15.30
2022-10-23T10:41:29.783Z,15.40
2022-10-23T10:44:16.744Z,15.20
2022-10-23T10:47:06.575Z,15.10
2022-10-23T10:49:59.941Z,15.00
2022-10-23T10:53:06.135Z,15.20
2022-10-23T10:55:38.653Z,15.30
2022-10-23T10:58:42.822Z,15.40
2022-10-23T11:01:36.216Z,15.60
2022-10-23T11:04:12.203Z,15.90
2022-10-23T11:06:39.228Z,15.90
2022-10-23T11:09:20.659Z,16.10
2022-10-23T11:11:49.143Z,16.10
2022-10-23T11:14:18.319Z,16.20
2022-10-23T11:17:12.082Z,16.30
2022-10-23T11:19:47.128Z,16.30
2022-10-23T11:22:35.367Z,16.30
2022-10-23T11:25:26.840Z,16.20
2022-10-23T11:28:16.460Z,16.20
2022-10-23T11:31:11.678Z,16.20
2022-10-23T11:34:23.365Z,16.40
2022-10-23T11:37:05.361Z,16.30
2022-10-23T11:39:34.718Z,16.10
2022-10-23T11:42:05.251Z,16.30
2022-10-23T11:44:35.199Z,16.30
2022-10-23T11:47:25.186Z,16.60
2022-10-23T11:50:04.151Z,16.70
2022-10-23T11:52:30.909Z,17.00
2022-10-23T11:55:04.924Z,17.20
2022-10-23T11:57:31.700Z,17.40
2022-10-23T11:59:58.637Z,17.40
2022-10-23T12:02:38.682Z,17.80
2022-10-23T12:05:09.758Z,17.80
2022-10-23T12:07:38.573Z,17.60
2022-10-23T12:10:17.884Z,17.50
2022-10-23T12:12:56.372Z,17.70
2022-10-23T12:15:24.761Z,17.70
2022-10-23T12:17:54.295Z,17.50
2022-10-23T12:20:52.423Z,17.40
2022-10-23T12:23:31.603Z,17.20
2022-10-23T12:26:18.299Z,17.20
2022-10-23T12:29:06.439Z,17.10
2022-10-23T12:31:48.175Z,17.10
2022-10-23T12:34:33.360Z,17.60
2022-10-23T12:37:16.057Z,18.10
2022-10-23T12:39:42.995Z,18.30
2022-10-23T12:42:37.167Z,18.50
2022-10-23T12:45:43.338Z,18.80
2022-10-23T12:48:20.824Z,19.10
2022-10-23T12:50:56.442Z,19.10
2022-10-23T12:53:24.173Z,19.10
2022-10-23T12:56:03.577Z,19.00
2022-10-23T12:58:33.655Z,19.00
2022-10-23T13:01:04.197Z,19.00
2022-10-23T13:03:33.767Z,19.40
2022-10-23T13:06:04.687Z,19.30
2022-10-23T13:08:40.490Z,20.20
2022-10-23T13:11:13.785Z,21.40
2022-10-23T13:13:41.501Z,22.30
2022-10-23T13:16:19.733Z,22.00
2022-10-23T13:18:46.999Z,21.50
2022-10-23T13:21:20.116Z,20.90
2022-10-23T13:23:47.324Z,20.30
2022-10-23T13:26:45.176Z,20.20
2022-10-23T13:29:34.076Z,20.00
2022-10-23T13:32:23.248Z,20.80
2022-10-23T13:35:04.404Z,22.30
2022-10-23T13:37:37.398Z,22.00
2022-10-23T13:40:20.109Z,21.60
2022-10-23T13:42:51.935Z,22.20
2022-10-23T13:45:26.631Z,23.40
2022-10-23T13:47:53.570Z,23.90
2022-10-23T13:50:20.587Z,24.00
2022-10-23T13:52:47.391Z,23.60
2022-10-23T13:55:23.039Z,23.60
2022-10-23T13:57:49.922Z,23.40
2022-10-23T14:00:17.580Z,22.90
2022-10-23T14:02:45.070Z,22.10
2022-10-23T14:05:12.190Z,22.00
2022-10-23T14:07:39.070Z,22.10
2022-10-23T14:10:06.728Z,22.00
2022-10-23T14:12:40.660Z,22.50
2022-10-23T14:15:08.390Z,22.40
2022-10-23T14:17:35.513Z,22.80
2022-10-23T14:20:05.850Z,22.60
2022-10-23T14:22:33.099Z,23.40
2022-10-23T14:24:59.889Z,23.70
2022-10-23T14:27:26.593Z,23.40
2022-10-23T14:29:53.278Z,23.60
2022-10-23T14:32:20.041Z,23.70
2022-10-23T14:34:51.304Z,24.20
2022-10-23T14:37:19.459Z,24.70
2022-10-23T14:39:50.037Z,24.20
2022-10-23T14:42:20.657Z,23.00
2022-10-23T14:44:49.393Z,22.70
2022-10-23T14:47:19.792Z,22.90
2022-10-23T14:49:51.818Z,23.00
2022-10-23T14:52:18.597Z,23.10
2022-10-23T14:54:45.416Z,23.80
2022-10-23T14:57:16.728Z,23.10
2022-10-23T14:59:43.785Z,22.30
2022-10-23T15:02:11.819Z,21.50
2022-10-23T15:04:39.235Z,21.50
2022-10-23T15:07:06.701Z,21.30
2022-10-23T15:09:36.227Z,21.20
2022-10-23T15:12:06.543Z,21.00
2022-10-23T15:14:34.008Z,20.60
2022-10-23T15:17:00.823Z,20.20
2022-10-23T15:19:27.561Z,20.10
2022-10-23T15:21:54.373Z,20.20
2022-10-23T15:24:21.295Z,20.30
2022-10-23T15:26:49.944Z,20.10
2022-10-23T15:29:17.238Z,20.20
2022-10-23T15:31:54.014Z,19.90
2022-10-23T15:34:25.386Z,19.70
2022-10-23T15:36:53.234Z,19.60
2022-10-23T15:39:26.011Z,19.20
2022-10-23T15:41:55.135Z,19.20
2022-10-23T15:44:24.842Z,18.90
2022-10-23T15:46:51.995Z,18.60
2022-10-23T15:49:19.773Z,18.60
2022-10-23T15:51:47.481Z,18.40
2022-10-23T15:54:17.059Z,18.50
2022-10-23T15:56:44.631Z,18.70
2022-10-23T15:59:11.690Z,18.50
2022-10-23T16:01:38.687Z,18.10
2022-10-23T16:04:05.649Z,17.90
2022-10-23T16:06:32.554Z,18.00
2022-10-23T16:08:59.586Z,18.00
2022-10-23T16:11:30.442Z,17.90
2022-10-23T16:13:59.074Z,17.70
2022-10-23T16:16:27.634Z,18.10
2022-10-23T16:18:54.423Z,18.00
2022-10-23T16:21:26.936Z,18.00
2022-10-23T16:23:55.647Z,17.70
2022-10-23T16:26:22.866Z,17.70
2022-10-23T16:28:54.580Z,17.10
2022-10-23T16:31:25.188Z,17.40
2022-10-23T16:33:53.439Z,17.30
2022-10-23T16:36:22.224Z,17.40
2022-10-23T16:38:48.948Z,17.60
2022-10-23T16:41:15.906Z,17.60
2022-10-23T16:43:42.678Z,17.50
2022-10-23T16:46:18.608Z,17.60
2022-10-23T16:48:45.703Z,17.60
2022-10-23T16:51:15.276Z,17.60
2022-10-23T16:53:43.271Z,17.60
2022-10-23T16:56:12.129Z,17.40
2022-10-23T16:58:42.219Z,17.30
2022-10-23T17:01:18.530Z,17.20
2022-10-23T17:03:48.806Z,17.30
2022-10-23T17:06:19.424Z,17.60
2022-10-23T17:08:46.699Z,17.90
2022-10-23T17:11:20.189Z,17.60
2022-10-23T17:13:55.726Z,17.20
2022-10-23T17:16:36.240Z,16.30
2022-10-23T17:19:11.815Z,15.70
2022-10-23T17:21:47.851Z,15.60
2022-10-23T17:24:14.695Z,15.40
2022-10-23T17:26:41.948Z,15.50
2022-10-23T17:29:11.046Z,15.40
2022-10-23T17:31:40.756Z,15.30
2022-10-23T17:34:10.956Z,15.10
2022-10-23T17:36:42.747Z,14.90
2022-10-23T17:39:11.467Z,14.90
2022-10-23T17:45:21.337Z,15.00
2022-10-23T17:47:48.215Z,15.30
2022-10-23T17:50:15.250Z,15.40
2022-10-23T17:52:43.084Z,15.60
2022-10-23T17:55:10.356Z,15.60
2022-10-23T17:57:38.604Z,15.50
2022-10-23T18:00:06.621Z,15.50
2022-10-23T18:02:33.419Z,15.40
2022-10-23T18:05:00.255Z,15.30
2022-10-23T18:07:27.114Z,15.20
2022-10-23T18:09:54.514Z,15.20
2022-10-23T18:12:21.474Z,15.30
2022-10-23T18:14:48.627Z,15.00
2022-10-23T18:17:15.999Z,14.80
2022-10-23T18:19:42.817Z,14.80
2022-10-23T18:22:09.787Z,15.10
2022-10-23T18:24:37.999Z,15.20
2022-10-23T18:27:04.762Z,15.50
2022-10-23T18:29:31.616Z,15.60
2022-10-23T18:32:00.755Z,15.10
2022-10-23T18:34:27.494Z,15.10
2022-10-23T18:36:54.892Z,15.10
2022-10-23T18:39:24.130Z,15.00
2022-10-23T18:41:55.186Z,15.10
2022-10-23T18:44:23.514Z,15.10
2022-10-23T18:46:51.675Z,15.10
2022-10-23T18:49:20.073Z,15.00
2022-10-23T18:51:47.026Z,15.00
2022-10-23T18:54:15.664Z,15.00
2022-10-23T18:56:43.052Z,14.90
2022-10-23T18:59:16.263Z,15.00
2022-10-23T19:01:43.881Z,14.90
2022-10-23T19:04:15.933Z,14.90
2022-10-23T19:06:43.621Z,14.90
2022-10-23T19:09:11.744Z,15.30
2022-10-23T19:11:38.577Z,15.00
2022-10-23T19:14:05.671Z,14.90
2022-10-23T19:16:38.246Z,14.80
2022-10-23T19:19:21.471Z,14.70
2022-10-23T19:21:49.862Z,14.80
2022-10-23T19:24:25.416Z,14.80
2022-10-23T19:26:52.432Z,14.80
2022-10-23T19:29:23.207Z,14.80
2022-10-23T19:31:50.530Z,14.80
2022-10-23T19:34:20.035Z,14.60
2022-10-23T19:36:48.219Z,14.60
2022-10-23T19:39:15.179Z,14.70
2022-10-23T19:41:42.059Z,14.80
2022-10-23T19:44:10.459Z,14.70
2022-10-23T19:46:38.833Z,14.60
2022-10-23T19:49:06.741Z,14.50
2022-10-23T19:51:34.608Z,14.50
2022-10-23T19:54:01.670Z,14.50
2022-10-23T19:56:28.500Z,14.80
2022-10-23T19:58:55.880Z,14.60
2022-10-23T20:01:26.397Z,14.60
2022-10-23T20:03:55.509Z,14.60
2022-10-23T20:06:26.294Z,14.70
2022-10-23T20:08:53.245Z,14.80
2022-10-23T20:11:25.708Z,14.80
2022-10-23T20:13:52.792Z,14.70
2022-10-23T20:16:29.045Z,14.70
2022-10-23T20:18:57.118Z,14.60
2022-10-23T20:21:25.372Z,14.70
2022-10-23T20:23:52.872Z,14.70
2022-10-23T20:26:23.844Z,14.90
2022-10-23T20:28:54.363Z,14.90
2022-10-23T20:31:24.280Z,14.90
2022-10-23T20:33:51.767Z,15.00
2022-10-23T20:36:27.530Z,15.00
2022-10-23T20:38:55.009Z,15.10
2022-10-23T20:41:22.747Z,15.10
2022-10-23T20:43:49.618Z,15.20
2022-10-23T20:46:16.649Z,15.20
2022-10-23T20:48:44.728Z,15.00
2022-10-23T20:51:18.035Z,14.80
2022-10-23T20:53:45.674Z,14.50
2022-10-23T20:56:15.478Z,14.20
2022-10-23T20:58:42.376Z,14.20
2022-10-23T21:01:12.166Z,14.10
2022-10-23T21:03:39.668Z,13.90
2022-10-23T21:06:09.409Z,14.00
2022-10-23T21:08:36.822Z,14.00
2022-10-23T21:11:04.427Z,13.90
2022-10-23T21:13:31.972Z,14.00
2022-10-23T21:15:59.005Z,14.10
2022-10-23T21:18:45.013Z,13.90
2022-10-23T21:21:14.680Z,13.80
2022-10-23T21:23:41.590Z,13.80
2022-10-23T21:26:08.376Z,13.70
2022-10-23T21:28:35.786Z,13.60
2022-10-23T21:31:08.289Z,13.70
2022-10-23T21:33:36.884Z,13.60
2022-10-23T21:36:13.437Z,13.60
2022-10-23T21:38:40.843Z,13.90
2022-10-23T21:41:12.782Z,14.30
2022-10-23T21:43:39.691Z,14.40
2022-10-23T21:46:18.015Z,14.60
2022-10-23T21:48:45.157Z,15.10
2022-10-23T21:51:24.577Z,15.00
2022-10-23T21:53:53.107Z,15.20
2022-10-23T21:56:31.280Z,15.30
2022-10-23T21:58:59.642Z,15.20
2022-10-23T22:01:27.001Z,15.10
2022-10-23T22:03:54.104Z,15.20
2022-10-23T22:06:24.734Z,15.30
2022-10-23T22:08:52.935Z,15.30
2022-10-23T22:11:20.155Z,15.20
2022-10-23T22:13:46.987Z,14.70
2022-10-23T22:16:15.046Z,14.90
2022-10-23T22:18:42.724Z,14.90
2022-10-23T22:21:16.489Z,14.70
2022-10-23T22:23:43.812Z,14.50
2022-10-23T22:26:20.367Z,14.40
2022-10-23T22:28:47.127Z,14.10
2022-10-23T22:31:19.520Z,13.90
2022-10-23T22:33:46.363Z,14.00
2022-10-23T22:36:13.846Z,14.00
2022-10-23T22:38:40.990Z,14.00
2022-10-23T22:41:08.534Z,14.00
2022-10-23T22:43:35.851Z,13.90
2022-10-23T22:46:17.235Z,14.10
2022-10-23T22:48:45.037Z,14.10
2022-10-23T22:51:15.307Z,14.00
2022-10-23T22:53:42.538Z,14.10
2022-10-23T22:56:12.736Z,14.20
2022-10-23T22:58:39.769Z,14.10
2022-10-23T23:01:11.799Z,14.20
2022-10-23T23:03:39.098Z,14.20
2022-10-23T23:06:07.534Z,14.10
2022-10-23T23:08:35.954Z,14.10
2022-10-23T23:11:03.724Z,14.30
2022-10-23T23:13:30.451Z,14.50
2022-10-23T23:15:57.659Z,14.70
2022-10-23T23:18:24.989Z,14.90
2022-10-23T23:20:51.844Z,14.80
2022-10-23T23:23:19.569Z,14.90
2022-10-23T23:25:49.981Z,14.80
2022-10-23T23:28:19.741Z,14.80
2022-10-23T23:30:47.211Z,15.00
2022-10-23T23:33:15.907Z,15.10
2022-10-23T23:35:45.027Z,15.10
2022-10-23T23:38:12.776Z,15.00
2022-10-23T23:40:39.747Z,15.10
2022-10-23T23:43:06.793Z,15.00
2022-10-23T23:45:33.551Z,15.10
2022-10-23T23:48:00.274Z,14.80
2022-10-23T23:50:28.061Z,15.00
2022-10-23T23:52:55.075Z,15.10
2022-10-23T23:55:21.984Z,15.10
2022-10-23T23:57:48.739Z,15.10
